sensor_id;sensor_type;location;lat;lon;timestamp;P1;durP1;ratioP1;P2;durP2;ratioP2
76152;SDS011;64897;50.816;4.422;2023-04-29T00:02:20;47.10;;;20.35;;
76152;SDS011;64897;50.816;4.422;2023-04-29T00:05:07;38.47;;;18.70;;
76152;SDS011;64897;50.816;4.422;2023-04-29T00:07:56;38.42;;;18.15;;
76152;SDS011;64897;50.816;4.422;2023-04-29T00:10:43;44.00;;;19.98;;
76152;SDS011;64897;50.816;4.422;2023-04-29T00:13:30;40.53;;;19.30;;
76152;SDS011;64897;50.816;4.422;2023-04-29T00:16:17;45.38;;;20.23;;
76152;SDS011;64897;50.816;4.422;2023-04-29T00:19:04;41.63;;;18.52;;
76152;SDS011;64897;50.816;4.422;2023-04-29T00:21:51;41.83;;;20.88;;
76152;SDS011;64897;50.816;4.422;2023-04-29T00:24:39;39.13;;;19.08;;
76152;SDS011;64897;50.816;4.422;2023-04-29T00:27:26;32.05;;;16.55;;
76152;SDS011;64897;50.816;4.422;2023-04-29T00:30:13;38.33;;;17.73;;
76152;SDS011;64897;50.816;4.422;2023-04-29T00:33:00;33.53;;;17.83;;
76152;SDS011;64897;50.816;4.422;2023-04-29T00:35:47;35.15;;;16.23;;
76152;SDS011;64897;50.816;4.422;2023-04-29T00:38:35;38.70;;;17.58;;
76152;SDS011;64897;50.816;4.422;2023-04-29T00:41:25;29.30;;;15.23;;
76152;SDS011;64897;50.816;4.422;2023-04-29T00:44:12;35.00;;;16.23;;
76152;SDS011;64897;50.816;4.422;2023-04-29T00:46:59;31.23;;;16.45;;
76152;SDS011;64897;50.816;4.422;2023-04-29T00:49:47;32.90;;;15.07;;
76152;SDS011;64897;50.816;4.422;2023-04-29T00:52:34;31.08;;;15.30;;
76152;SDS011;64897;50.816;4.422;2023-04-29T00:58:12;36.45;;;17.20;;
76152;SDS011;64897;50.816;4.422;2023-04-29T01:01:01;35.10;;;16.60;;
76152;SDS011;64897;50.816;4.422;2023-04-29T01:03:48;29.70;;;15.65;;
76152;SDS011;64897;50.816;4.422;2023-04-29T01:06:39;33.30;;;15.57;;
76152;SDS011;64897;50.816;4.422;2023-04-29T01:09:47;30.73;;;16.17;;
76152;SDS011;64897;50.816;4.422;2023-04-29T01:12:42;32.47;;;16.17;;
76152;SDS011;64897;50.816;4.422;2023-04-29T01:15:34;28.58;;;14.93;;
76152;SDS011;64897;50.816;4.422;2023-04-29T01:18:30;34.75;;;16.00;;
76152;SDS011;64897;50.816;4.422;2023-04-29T01:21:20;26.73;;;14.40;;
76152;SDS011;64897;50.816;4.422;2023-04-29T01:24:10;33.85;;;14.80;;
76152;SDS011;64897;50.816;4.422;2023-04-29T01:27:05;28.98;;;14.63;;
76152;SDS011;64897;50.816;4.422;2023-04-29T01:30:03;33.70;;;15.18;;
76152;SDS011;64897;50.816;4.422;2023-04-29T01:32:59;29.73;;;15.18;;
76152;SDS011;64897;50.816;4.422;2023-04-29T01:35:55;35.55;;;15.50;;
76152;SDS011;64897;50.816;4.422;2023-04-29T01:39:01;29.65;;;15.77;;
76152;SDS011;64897;50.816;4.422;2023-04-29T01:41:56;34.58;;;16.58;;
76152;SDS011;64897;50.816;4.422;2023-04-29T01:44:55;30.73;;;15.52;;
76152;SDS011;64897;50.816;4.422;2023-04-29T01:47:45;32.13;;;16.13;;
76152;SDS011;64897;50.816;4.422;2023-04-29T01:50:34;42.22;;;18.00;;
76152;SDS011;64897;50.816;4.422;2023-04-29T01:53:39;42.05;;;17.92;;
76152;SDS011;64897;50.816;4.422;2023-04-29T01:56:27;48.35;;;19.92;;
76152;SDS011;64897;50.816;4.422;2023-04-29T01:59:22;43.78;;;19.92;;
76152;SDS011;64897;50.816;4.422;2023-04-29T02:02:28;43.25;;;19.95;;
76152;SDS011;64897;50.816;4.422;2023-04-29T02:05:23;47.05;;;21.85;;
76152;SDS011;64897;50.816;4.422;2023-04-29T02:08:14;43.70;;;21.35;;
76152;SDS011;64897;50.816;4.422;2023-04-29T02:11:03;39.20;;;18.92;;
76152;SDS011;64897;50.816;4.422;2023-04-29T02:13:56;45.58;;;20.42;;
76152;SDS011;64897;50.816;4.422;2023-04-29T02:16:45;46.33;;;22.15;;
76152;SDS011;64897;50.816;4.422;2023-04-29T02:19:32;39.20;;;19.17;;
76152;SDS011;64897;50.816;4.422;2023-04-29T02:22:19;42.42;;;19.80;;
76152;SDS011;64897;50.816;4.422;2023-04-29T02:25:07;42.47;;;19.98;;
76152;SDS011;64897;50.816;4.422;2023-04-29T02:27:54;35.33;;;16.98;;
76152;SDS011;64897;50.816;4.422;2023-04-29T02:30:41;39.50;;;19.77;;
76152;SDS011;64897;50.816;4.422;2023-04-29T02:33:31;37.58;;;19.30;;
76152;SDS011;64897;50.816;4.422;2023-04-29T02:36:18;33.53;;;16.35;;
76152;SDS011;64897;50.816;4.422;2023-04-29T02:39:05;32.80;;;17.63;;
76152;SDS011;64897;50.816;4.422;2023-04-29T02:41:53;28.95;;;16.42;;
76152;SDS011;64897;50.816;4.422;2023-04-29T02:44:40;30.13;;;16.73;;
76152;SDS011;64897;50.816;4.422;2023-04-29T02:47:27;31.17;;;17.08;;
76152;SDS011;64897;50.816;4.422;2023-04-29T02:50:16;33.80;;;16.02;;
76152;SDS011;64897;50.816;4.422;2023-04-29T02:53:03;27.92;;;14.10;;
76152;SDS011;64897;50.816;4.422;2023-04-29T02:55:50;24.80;;;14.38;;
76152;SDS011;64897;50.816;4.422;2023-04-29T02:58:37;32.28;;;16.40;;
76152;SDS011;64897;50.816;4.422;2023-04-29T03:01:24;25.80;;;12.95;;
76152;SDS011;64897;50.816;4.422;2023-04-29T03:04:11;27.98;;;14.00;;
76152;SDS011;64897;50.816;4.422;2023-04-29T03:06:59;29.80;;;14.10;;
76152;SDS011;64897;50.816;4.422;2023-04-29T03:09:46;27.10;;;14.07;;
76152;SDS011;64897;50.816;4.422;2023-04-29T03:12:33;23.55;;;13.05;;
76152;SDS011;64897;50.816;4.422;2023-04-29T03:15:21;20.23;;;12.43;;
76152;SDS011;64897;50.816;4.422;2023-04-29T03:18:09;17.27;;;10.68;;
76152;SDS011;64897;50.816;4.422;2023-04-29T03:20:56;20.30;;;11.60;;
76152;SDS011;64897;50.816;4.422;2023-04-29T03:23:45;16.88;;;10.95;;
76152;SDS011;64897;50.816;4.422;2023-04-29T03:26:38;26.45;;;12.45;;
76152;SDS011;64897;50.816;4.422;2023-04-29T03:29:26;21.38;;;13.10;;
76152;SDS011;64897;50.816;4.422;2023-04-29T03:32:13;18.63;;;11.65;;
76152;SDS011;64897;50.816;4.422;2023-04-29T03:35:02;24.58;;;12.30;;
76152;SDS011;64897;50.816;4.422;2023-04-29T03:37:56;26.30;;;13.10;;
76152;SDS011;64897;50.816;4.422;2023-04-29T03:40:49;24.52;;;14.90;;
76152;SDS011;64897;50.816;4.422;2023-04-29T03:43:36;22.27;;;12.10;;
76152;SDS011;64897;50.816;4.422;2023-04-29T03:46:23;24.88;;;11.10;;
76152;SDS011;64897;50.816;4.422;2023-04-29T03:49:10;18.15;;;10.73;;
76152;SDS011;64897;50.816;4.422;2023-04-29T03:51:57;19.85;;;10.25;;
76152;SDS011;64897;50.816;4.422;2023-04-29T03:54:44;17.60;;;10.27;;
76152;SDS011;64897;50.816;4.422;2023-04-29T03:57:33;19.02;;;9.95;;
76152;SDS011;64897;50.816;4.422;2023-04-29T04:00:20;19.33;;;9.93;;
76152;SDS011;64897;50.816;4.422;2023-04-29T04:03:12;16.58;;;10.38;;
76152;SDS011;64897;50.816;4.422;2023-04-29T04:05:59;21.85;;;12.27;;
76152;SDS011;64897;50.816;4.422;2023-04-29T04:08:46;22.02;;;13.40;;
76152;SDS011;64897;50.816;4.422;2023-04-29T04:11:41;21.92;;;13.00;;
76152;SDS011;64897;50.816;4.422;2023-04-29T04:14:30;28.77;;;15.68;;
76152;SDS011;64897;50.816;4.422;2023-04-29T04:17:17;23.92;;;14.32;;
76152;SDS011;64897;50.816;4.422;2023-04-29T04:20:04;27.73;;;15.68;;
76152;SDS011;64897;50.816;4.422;2023-04-29T04:22:52;27.08;;;14.68;;
76152;SDS011;64897;50.816;4.422;2023-04-29T04:25:46;26.95;;;14.57;;
76152;SDS011;64897;50.816;4.422;2023-04-29T04:28:59;25.80;;;14.15;;
76152;SDS011;64897;50.816;4.422;2023-04-29T04:32:06;31.60;;;15.32;;
76152;SDS011;64897;50.816;4.422;2023-04-29T04:34:56;28.50;;;15.68;;
76152;SDS011;64897;50.816;4.422;2023-04-29T04:37:44;27.05;;;15.18;;
76152;SDS011;64897;50.816;4.422;2023-04-29T04:40:31;34.53;;;16.30;;
76152;SDS011;64897;50.816;4.422;2023-04-29T04:43:42;29.38;;;16.42;;
76152;SDS011;64897;50.816;4.422;2023-04-29T04:46:39;30.98;;;14.57;;
76152;SDS011;64897;50.816;4.422;2023-04-29T04:49:35;28.40;;;15.50;;
76152;SDS011;64897;50.816;4.422;2023-04-29T04:52:22;28.40;;;15.65;;
76152;SDS011;64897;50.816;4.422;2023-04-29T04:55:20;29.10;;;15.63;;
76152;SDS011;64897;50.816;4.422;2023-04-29T04:58:08;29.88;;;15.95;;
76152;SDS011;64897;50.816;4.422;2023-04-29T05:00:56;27.08;;;14.07;;
76152;SDS011;64897;50.816;4.422;2023-04-29T05:03:43;30.92;;;15.35;;
76152;SDS011;64897;50.816;4.422;2023-04-29T05:06:31;28.60;;;15.77;;
76152;SDS011;64897;50.816;4.422;2023-04-29T05:09:18;30.38;;;15.35;;
76152;SDS011;64897;50.816;4.422;2023-04-29T05:12:05;40.35;;;17.05;;
76152;SDS011;64897;50.816;4.422;2023-04-29T05:14:52;32.47;;;17.98;;
76152;SDS011;64897;50.816;4.422;2023-04-29T05:17:39;28.75;;;13.68;;
76152;SDS011;64897;50.816;4.422;2023-04-29T05:20:27;24.70;;;14.60;;
76152;SDS011;64897;50.816;4.422;2023-04-29T05:23:15;22.20;;;12.00;;
76152;SDS011;64897;50.816;4.422;2023-04-29T05:26:04;20.45;;;12.00;;
76152;SDS011;64897;50.816;4.422;2023-04-29T05:28:51;18.27;;;10.35;;
76152;SDS011;64897;50.816;4.422;2023-04-29T05:31:39;20.13;;;11.15;;
76152;SDS011;64897;50.816;4.422;2023-04-29T05:34:26;19.88;;;10.80;;
76152;SDS011;64897;50.816;4.422;2023-04-29T05:37:13;28.45;;;12.25;;
76152;SDS011;64897;50.816;4.422;2023-04-29T05:40:20;28.38;;;12.85;;
76152;SDS011;64897;50.816;4.422;2023-04-29T05:43:08;19.58;;;11.60;;
76152;SDS011;64897;50.816;4.422;2023-04-29T05:45:55;19.48;;;12.10;;
76152;SDS011;64897;50.816;4.422;2023-04-29T05:48:42;21.88;;;11.38;;
76152;SDS011;64897;50.816;4.422;2023-04-29T05:51:30;23.00;;;13.18;;
76152;SDS011;64897;50.816;4.422;2023-04-29T05:54:17;32.17;;;14.13;;
76152;SDS011;64897;50.816;4.422;2023-04-29T05:57:05;26.77;;;12.68;;
76152;SDS011;64897;50.816;4.422;2023-04-29T05:59:53;22.98;;;12.98;;
76152;SDS011;64897;50.816;4.422;2023-04-29T06:02:40;22.08;;;12.07;;
76152;SDS011;64897;50.816;4.422;2023-04-29T06:05:31;26.05;;;13.02;;
76152;SDS011;64897;50.816;4.422;2023-04-29T06:08:32;23.90;;;12.68;;
76152;SDS011;64897;50.816;4.422;2023-04-29T06:11:22;28.17;;;12.65;;
76152;SDS011;64897;50.816;4.422;2023-04-29T06:14:10;16.52;;;11.10;;
76152;SDS011;64897;50.816;4.422;2023-04-29T06:16:58;19.58;;;11.25;;
76152;SDS011;64897;50.816;4.422;2023-04-29T06:19:46;20.02;;;11.02;;
76152;SDS011;64897;50.816;4.422;2023-04-29T06:22:33;19.50;;;10.80;;
76152;SDS011;64897;50.816;4.422;2023-04-29T06:25:21;26.23;;;11.32;;
76152;SDS011;64897;50.816;4.422;2023-04-29T06:28:09;25.83;;;13.68;;
76152;SDS011;64897;50.816;4.422;2023-04-29T06:30:58;22.58;;;11.98;;
76152;SDS011;64897;50.816;4.422;2023-04-29T06:33:45;22.40;;;11.65;;
76152;SDS011;64897;50.816;4.422;2023-04-29T06:36:33;23.52;;;12.85;;
76152;SDS011;64897;50.816;4.422;2023-04-29T06:39:40;20.00;;;12.82;;
76152;SDS011;64897;50.816;4.422;2023-04-29T06:42:47;23.80;;;12.63;;
76152;SDS011;64897;50.816;4.422;2023-04-29T06:45:59;26.05;;;14.15;;
76152;SDS011;64897;50.816;4.422;2023-04-29T06:48:52;21.90;;;13.80;;
76152;SDS011;64897;50.816;4.422;2023-04-29T06:51:39;28.23;;;14.15;;
76152;SDS011;64897;50.816;4.422;2023-04-29T06:54:26;22.95;;;13.35;;
76152;SDS011;64897;50.816;4.422;2023-04-29T06:57:13;24.85;;;13.82;;
76152;SDS011;64897;50.816;4.422;2023-04-29T07:00:04;23.55;;;12.77;;
76152;SDS011;64897;50.816;4.422;2023-04-29T07:02:54;25.38;;;13.00;;
76152;SDS011;64897;50.816;4.422;2023-04-29T07:05:41;24.48;;;14.88;;
76152;SDS011;64897;50.816;4.422;2023-04-29T07:08:29;29.38;;;15.55;;
76152;SDS011;64897;50.816;4.422;2023-04-29T07:11:15;25.35;;;14.63;;
76152;SDS011;64897;50.816;4.422;2023-04-29T07:14:02;25.15;;;14.70;;
76152;SDS011;64897;50.816;4.422;2023-04-29T07:16:54;24.45;;;15.30;;
76152;SDS011;64897;50.816;4.422;2023-04-29T07:19:42;24.17;;;14.25;;
76152;SDS011;64897;50.816;4.422;2023-04-29T07:22:29;26.80;;;15.07;;
76152;SDS011;64897;50.816;4.422;2023-04-29T07:25:16;28.77;;;14.77;;
76152;SDS011;64897;50.816;4.422;2023-04-29T07:28:04;24.55;;;15.88;;
76152;SDS011;64897;50.816;4.422;2023-04-29T07:30:52;27.88;;;15.52;;
76152;SDS011;64897;50.816;4.422;2023-04-29T07:33:39;28.90;;;15.52;;
76152;SDS011;64897;50.816;4.422;2023-04-29T07:36:28;31.10;;;16.27;;
76152;SDS011;64897;50.816;4.422;2023-04-29T07:39:16;28.83;;;16.42;;
76152;SDS011;64897;50.816;4.422;2023-04-29T07:42:06;29.50;;;16.38;;
76152;SDS011;64897;50.816;4.422;2023-04-29T07:44:53;28.55;;;17.30;;
76152;SDS011;64897;50.816;4.422;2023-04-29T07:47:40;31.20;;;16.20;;
76152;SDS011;64897;50.816;4.422;2023-04-29T07:50:28;28.92;;;15.05;;
76152;SDS011;64897;50.816;4.422;2023-04-29T07:53:16;26.35;;;16.92;;
76152;SDS011;64897;50.816;4.422;2023-04-29T07:56:04;29.45;;;17.75;;
76152;SDS011;64897;50.816;4.422;2023-04-29T07:58:51;28.30;;;17.58;;
76152;SDS011;64897;50.816;4.422;2023-04-29T08:01:39;32.33;;;18.27;;
76152;SDS011;64897;50.816;4.422;2023-04-29T08:04:26;30.80;;;17.85;;
76152;SDS011;64897;50.816;4.422;2023-04-29T08:07:18;32.72;;;18.65;;
76152;SDS011;64897;50.816;4.422;2023-04-29T08:10:07;32.38;;;16.60;;
76152;SDS011;64897;50.816;4.422;2023-04-29T08:12:55;32.20;;;17.63;;
76152;SDS011;64897;50.816;4.422;2023-04-29T08:15:42;29.05;;;17.17;;
76152;SDS011;64897;50.816;4.422;2023-04-29T08:18:29;29.98;;;16.80;;
76152;SDS011;64897;50.816;4.422;2023-04-29T08:21:16;35.13;;;19.08;;
76152;SDS011;64897;50.816;4.422;2023-04-29T08:24:03;28.80;;;15.63;;
76152;SDS011;64897;50.816;4.422;2023-04-29T08:26:51;26.75;;;14.57;;
76152;SDS011;64897;50.816;4.422;2023-04-29T08:29:38;25.38;;;15.40;;
76152;SDS011;64897;50.816;4.422;2023-04-29T08:32:25;26.08;;;14.73;;
76152;SDS011;64897;50.816;4.422;2023-04-29T08:35:12;28.88;;;14.13;;
76152;SDS011;64897;50.816;4.422;2023-04-29T08:37:59;27.17;;;14.75;;
76152;SDS011;64897;50.816;4.422;2023-04-29T08:40:45;27.40;;;15.05;;
76152;SDS011;64897;50.816;4.422;2023-04-29T08:43:34;26.90;;;14.88;;
76152;SDS011;64897;50.816;4.422;2023-04-29T08:46:24;30.15;;;14.50;;
76152;SDS011;64897;50.816;4.422;2023-04-29T08:49:11;30.77;;;16.80;;
76152;SDS011;64897;50.816;4.422;2023-04-29T08:51:58;24.20;;;15.02;;
76152;SDS011;64897;50.816;4.422;2023-04-29T08:54:46;25.60;;;14.15;;
76152;SDS011;64897;50.816;4.422;2023-04-29T08:57:34;21.20;;;13.82;;
76152;SDS011;64897;50.816;4.422;2023-04-29T09:00:25;24.27;;;13.77;;
76152;SDS011;64897;50.816;4.422;2023-04-29T09:03:14;23.83;;;13.35;;
76152;SDS011;64897;50.816;4.422;2023-04-29T09:06:08;24.90;;;14.18;;
76152;SDS011;64897;50.816;4.422;2023-04-29T09:08:57;22.10;;;12.38;;
76152;SDS011;64897;50.816;4.422;2023-04-29T09:11:44;25.95;;;13.73;;
76152;SDS011;64897;50.816;4.422;2023-04-29T09:14:32;23.05;;;14.50;;
76152;SDS011;64897;50.816;4.422;2023-04-29T09:17:22;21.75;;;13.35;;
76152;SDS011;64897;50.816;4.422;2023-04-29T09:20:28;22.83;;;14.02;;
76152;SDS011;64897;50.816;4.422;2023-04-29T09:23:15;21.90;;;13.88;;
76152;SDS011;64897;50.816;4.422;2023-04-29T09:26:02;28.48;;;14.35;;
76152;SDS011;64897;50.816;4.422;2023-04-29T09:29:04;27.60;;;13.73;;
76152;SDS011;64897;50.816;4.422;2023-04-29T09:31:53;23.35;;;13.52;;
76152;SDS011;64897;50.816;4.422;2023-04-29T09:34:43;29.27;;;13.95;;
76152;SDS011;64897;50.816;4.422;2023-04-29T09:37:30;23.38;;;14.63;;
76152;SDS011;64897;50.816;4.422;2023-04-29T09:40:26;21.27;;;13.43;;
76152;SDS011;64897;50.816;4.422;2023-04-29T09:43:15;27.42;;;14.23;;
76152;SDS011;64897;50.816;4.422;2023-04-29T09:46:03;26.10;;;13.52;;
76152;SDS011;64897;50.816;4.422;2023-04-29T09:48:57;24.27;;;13.77;;
76152;SDS011;64897;50.816;4.422;2023-04-29T09:51:52;24.50;;;13.82;;
76152;SDS011;64897;50.816;4.422;2023-04-29T09:57:27;23.77;;;13.13;;
76152;SDS011;64897;50.816;4.422;2023-04-29T10:00:26;21.52;;;14.40;;
76152;SDS011;64897;50.816;4.422;2023-04-29T10:03:18;26.58;;;14.02;;
76152;SDS011;64897;50.816;4.422;2023-04-29T10:06:07;31.40;;;15.00;;
76152;SDS011;64897;50.816;4.422;2023-04-29T10:08:55;23.95;;;14.60;;
76152;SDS011;64897;50.816;4.422;2023-04-29T10:11:42;23.88;;;13.95;;
76152;SDS011;64897;50.816;4.422;2023-04-29T10:14:30;26.20;;;14.40;;
76152;SDS011;64897;50.816;4.422;2023-04-29T10:17:26;25.85;;;15.68;;
76152;SDS011;64897;50.816;4.422;2023-04-29T10:20:23;28.00;;;14.70;;
76152;SDS011;64897;50.816;4.422;2023-04-29T10:23:10;24.17;;;13.98;;
76152;SDS011;64897;50.816;4.422;2023-04-29T10:26:00;22.80;;;13.48;;
76152;SDS011;64897;50.816;4.422;2023-04-29T10:28:48;21.67;;;13.25;;
76152;SDS011;64897;50.816;4.422;2023-04-29T10:31:40;25.92;;;14.55;;
76152;SDS011;64897;50.816;4.422;2023-04-29T10:34:27;22.48;;;13.27;;
76152;SDS011;64897;50.816;4.422;2023-04-29T10:37:17;18.67;;;10.73;;
76152;SDS011;64897;50.816;4.422;2023-04-29T10:40:07;18.02;;;11.95;;
76152;SDS011;64897;50.816;4.422;2023-04-29T10:43:00;19.92;;;11.60;;
76152;SDS011;64897;50.816;4.422;2023-04-29T10:45:48;17.52;;;10.38;;
76152;SDS011;64897;50.816;4.422;2023-04-29T10:48:35;14.88;;;11.15;;
76152;SDS011;64897;50.816;4.422;2023-04-29T10:51:29;17.23;;;11.32;;
76152;SDS011;64897;50.816;4.422;2023-04-29T10:54:17;19.95;;;12.80;;
76152;SDS011;64897;50.816;4.422;2023-04-29T10:57:09;20.10;;;12.20;;
76152;SDS011;64897;50.816;4.422;2023-04-29T11:00:07;21.88;;;11.63;;
76152;SDS011;64897;50.816;4.422;2023-04-29T11:03:07;19.90;;;12.07;;
76152;SDS011;64897;50.816;4.422;2023-04-29T11:06:37;16.85;;;11.95;;
76152;SDS011;64897;50.816;4.422;2023-04-29T11:09:29;23.15;;;12.77;;
76152;SDS011;64897;50.816;4.422;2023-04-29T11:12:22;18.50;;;11.60;;
76152;SDS011;64897;50.816;4.422;2023-04-29T11:15:10;16.13;;;11.15;;
76152;SDS011;64897;50.816;4.422;2023-04-29T11:18:03;46.47;;;14.18;;
76152;SDS011;64897;50.816;4.422;2023-04-29T11:21:10;22.13;;;11.02;;
76152;SDS011;64897;50.816;4.422;2023-04-29T11:23:58;20.52;;;11.43;;
76152;SDS011;64897;50.816;4.422;2023-04-29T11:26:46;16.58;;;10.98;;
76152;SDS011;64897;50.816;4.422;2023-04-29T11:29:33;13.70;;;9.88;;
76152;SDS011;64897;50.816;4.422;2023-04-29T11:32:22;15.65;;;10.50;;
76152;SDS011;64897;50.816;4.422;2023-04-29T11:35:10;23.10;;;12.10;;
76152;SDS011;64897;50.816;4.422;2023-04-29T11:37:59;20.67;;;11.43;;
76152;SDS011;64897;50.816;4.422;2023-04-29T11:40:47;18.33;;;11.23;;
76152;SDS011;64897;50.816;4.422;2023-04-29T11:43:35;19.17;;;11.20;;
76152;SDS011;64897;50.816;4.422;2023-04-29T11:46:23;17.10;;;10.45;;
76152;SDS011;64897;50.816;4.422;2023-04-29T11:49:13;14.88;;;9.80;;
76152;SDS011;64897;50.816;4.422;2023-04-29T11:52:01;15.43;;;10.10;;
76152;SDS011;64897;50.816;4.422;2023-04-29T11:54:48;20.40;;;11.45;;
76152;SDS011;64897;50.816;4.422;2023-04-29T11:57:36;18.20;;;10.07;;
76152;SDS011;64897;50.816;4.422;2023-04-29T12:00:23;16.55;;;9.38;;
76152;SDS011;64897;50.816;4.422;2023-04-29T12:03:12;12.95;;;8.73;;
76152;SDS011;64897;50.816;4.422;2023-04-29T12:06:01;18.38;;;9.57;;
76152;SDS011;64897;50.816;4.422;2023-04-29T12:08:48;13.18;;;8.77;;
76152;SDS011;64897;50.816;4.422;2023-04-29T12:11:35;14.25;;;9.48;;
76152;SDS011;64897;50.816;4.422;2023-04-29T12:14:23;14.38;;;10.27;;
76152;SDS011;64897;50.816;4.422;2023-04-29T12:17:10;15.88;;;9.60;;
76152;SDS011;64897;50.816;4.422;2023-04-29T12:19:58;16.15;;;10.88;;
76152;SDS011;64897;50.816;4.422;2023-04-29T12:22:46;15.00;;;9.93;;
76152;SDS011;64897;50.816;4.422;2023-04-29T12:25:34;14.23;;;9.05;;
76152;SDS011;64897;50.816;4.422;2023-04-29T12:28:21;13.30;;;9.30;;
76152;SDS011;64897;50.816;4.422;2023-04-29T12:31:09;13.00;;;8.77;;
76152;SDS011;64897;50.816;4.422;2023-04-29T12:33:56;14.38;;;10.02;;
76152;SDS011;64897;50.816;4.422;2023-04-29T12:36:43;15.80;;;9.63;;
76152;SDS011;64897;50.816;4.422;2023-04-29T12:39:31;16.20;;;10.20;;
76152;SDS011;64897;50.816;4.422;2023-04-29T12:42:18;13.70;;;9.32;;
76152;SDS011;64897;50.816;4.422;2023-04-29T12:45:05;14.57;;;9.40;;
76152;SDS011;64897;50.816;4.422;2023-04-29T12:47:52;14.65;;;9.65;;
76152;SDS011;64897;50.816;4.422;2023-04-29T12:50:41;16.65;;;9.27;;
76152;SDS011;64897;50.816;4.422;2023-04-29T12:53:28;15.57;;;10.07;;
76152;SDS011;64897;50.816;4.422;2023-04-29T12:56:18;29.55;;;11.52;;
76152;SDS011;64897;50.816;4.422;2023-04-29T12:59:05;14.02;;;8.82;;
76152;SDS011;64897;50.816;4.422;2023-04-29T13:01:53;17.23;;;9.73;;
76152;SDS011;64897;50.816;4.422;2023-04-29T13:04:40;15.30;;;9.50;;
76152;SDS011;64897;50.816;4.422;2023-04-29T13:07:27;14.20;;;9.50;;
76152;SDS011;64897;50.816;4.422;2023-04-29T13:10:14;12.20;;;8.60;;
76152;SDS011;64897;50.816;4.422;2023-04-29T13:13:03;14.73;;;8.55;;
76152;SDS011;64897;50.816;4.422;2023-04-29T13:15:51;12.20;;;7.75;;
76152;SDS011;64897;50.816;4.422;2023-04-29T13:18:37;14.18;;;8.88;;
76152;SDS011;64897;50.816;4.422;2023-04-29T13:21:25;12.15;;;7.32;;
76152;SDS011;64897;50.816;4.422;2023-04-29T13:24:12;13.02;;;7.82;;
76152;SDS011;64897;50.816;4.422;2023-04-29T13:27:02;13.60;;;7.93;;
76152;SDS011;64897;50.816;4.422;2023-04-29T13:29:50;11.75;;;7.35;;
76152;SDS011;64897;50.816;4.422;2023-04-29T13:32:37;11.98;;;8.23;;
76152;SDS011;64897;50.816;4.422;2023-04-29T13:35:25;13.60;;;8.40;;
76152;SDS011;64897;50.816;4.422;2023-04-29T13:38:12;13.70;;;8.15;;
76152;SDS011;64897;50.816;4.422;2023-04-29T13:40:59;15.48;;;8.48;;
76152;SDS011;64897;50.816;4.422;2023-04-29T13:43:46;12.50;;;7.80;;
76152;SDS011;64897;50.816;4.422;2023-04-29T13:46:35;12.52;;;7.35;;
76152;SDS011;64897;50.816;4.422;2023-04-29T13:49:21;13.13;;;8.00;;
76152;SDS011;64897;50.816;4.422;2023-04-29T13:52:09;13.98;;;8.00;;
76152;SDS011;64897;50.816;4.422;2023-04-29T13:54:56;10.57;;;7.28;;
76152;SDS011;64897;50.816;4.422;2023-04-29T13:57:43;11.48;;;7.15;;
76152;SDS011;64897;50.816;4.422;2023-04-29T14:00:30;12.30;;;9.00;;
76152;SDS011;64897;50.816;4.422;2023-04-29T14:03:18;13.43;;;8.40;;
76152;SDS011;64897;50.816;4.422;2023-04-29T14:06:05;11.65;;;7.18;;
76152;SDS011;64897;50.816;4.422;2023-04-29T14:08:52;14.00;;;8.77;;
76152;SDS011;64897;50.816;4.422;2023-04-29T14:11:40;12.40;;;8.25;;
76152;SDS011;64897;50.816;4.422;2023-04-29T14:14:27;12.68;;;8.70;;
76152;SDS011;64897;50.816;4.422;2023-04-29T14:17:13;16.02;;;8.40;;
76152;SDS011;64897;50.816;4.422;2023-04-29T14:20:02;14.32;;;9.15;;
76152;SDS011;64897;50.816;4.422;2023-04-29T14:22:49;12.60;;;8.25;;
76152;SDS011;64897;50.816;4.422;2023-04-29T14:25:36;14.25;;;8.70;;
76152;SDS011;64897;50.816;4.422;2023-04-29T14:28:24;13.48;;;8.05;;
76152;SDS011;64897;50.816;4.422;2023-04-29T14:31:10;12.50;;;8.60;;
76152;SDS011;64897;50.816;4.422;2023-04-29T14:33:58;15.68;;;8.88;;
76152;SDS011;64897;50.816;4.422;2023-04-29T14:36:47;11.60;;;8.30;;
76152;SDS011;64897;50.816;4.422;2023-04-29T14:39:34;14.00;;;8.18;;
76152;SDS011;64897;50.816;4.422;2023-04-29T14:42:21;11.25;;;8.32;;
76152;SDS011;64897;50.816;4.422;2023-04-29T14:45:08;13.23;;;8.73;;
76152;SDS011;64897;50.816;4.422;2023-04-29T14:47:55;14.32;;;8.60;;
76152;SDS011;64897;50.816;4.422;2023-04-29T14:50:42;10.70;;;8.13;;
76152;SDS011;64897;50.816;4.422;2023-04-29T14:53:31;12.73;;;8.80;;
76152;SDS011;64897;50.816;4.422;2023-04-29T14:56:18;10.95;;;7.63;;
76152;SDS011;64897;50.816;4.422;2023-04-29T14:59:05;14.50;;;8.23;;
76152;SDS011;64897;50.816;4.422;2023-04-29T15:01:52;16.02;;;8.52;;
76152;SDS011;64897;50.816;4.422;2023-04-29T15:04:39;11.45;;;7.40;;
76152;SDS011;64897;50.816;4.422;2023-04-29T15:07:29;13.82;;;7.85;;
76152;SDS011;64897;50.816;4.422;2023-04-29T15:10:17;12.38;;;7.57;;
76152;SDS011;64897;50.816;4.422;2023-04-29T15:13:04;13.93;;;8.25;;
76152;SDS011;64897;50.816;4.422;2023-04-29T15:15:51;14.57;;;7.63;;
76152;SDS011;64897;50.816;4.422;2023-04-29T15:18:38;12.52;;;7.55;;
76152;SDS011;64897;50.816;4.422;2023-04-29T15:21:26;13.23;;;8.15;;
76152;SDS011;64897;50.816;4.422;2023-04-29T15:24:13;12.52;;;7.65;;
76152;SDS011;64897;50.816;4.422;2023-04-29T15:27:01;11.25;;;6.80;;
76152;SDS011;64897;50.816;4.422;2023-04-29T15:29:49;11.98;;;7.47;;
76152;SDS011;64897;50.816;4.422;2023-04-29T15:32:37;13.18;;;7.38;;
76152;SDS011;64897;50.816;4.422;2023-04-29T15:35:24;11.70;;;7.10;;
76152;SDS011;64897;50.816;4.422;2023-04-29T15:38:12;11.90;;;7.47;;
76152;SDS011;64897;50.816;4.422;2023-04-29T15:40:59;12.75;;;7.63;;
76152;SDS011;64897;50.816;4.422;2023-04-29T15:43:49;10.80;;;7.53;;
76152;SDS011;64897;50.816;4.422;2023-04-29T15:46:36;17.95;;;8.00;;
76152;SDS011;64897;50.816;4.422;2023-04-29T15:49:23;13.70;;;7.30;;
76152;SDS011;64897;50.816;4.422;2023-04-29T15:52:10;13.30;;;8.40;;
76152;SDS011;64897;50.816;4.422;2023-04-29T15:54:57;15.80;;;9.27;;
76152;SDS011;64897;50.816;4.422;2023-04-29T15:57:44;12.82;;;6.88;;
76152;SDS011;64897;50.816;4.422;2023-04-29T16:00:32;10.20;;;7.57;;
76152;SDS011;64897;50.816;4.422;2023-04-29T16:03:19;11.45;;;7.38;;
76152;SDS011;64897;50.816;4.422;2023-04-29T16:06:05;11.70;;;7.40;;
76152;SDS011;64897;50.816;4.422;2023-04-29T16:08:52;11.38;;;7.57;;
76152;SDS011;64897;50.816;4.422;2023-04-29T16:11:40;13.43;;;8.40;;
76152;SDS011;64897;50.816;4.422;2023-04-29T16:14:27;9.23;;;6.70;;
76152;SDS011;64897;50.816;4.422;2023-04-29T16:17:16;13.38;;;7.38;;
76152;SDS011;64897;50.816;4.422;2023-04-29T16:20:03;9.38;;;6.50;;
76152;SDS011;64897;50.816;4.422;2023-04-29T16:22:51;10.95;;;7.05;;
76152;SDS011;64897;50.816;4.422;2023-04-29T16:25:38;12.38;;;6.88;;
76152;SDS011;64897;50.816;4.422;2023-04-29T16:28:26;12.10;;;7.35;;
76152;SDS011;64897;50.816;4.422;2023-04-29T16:31:14;10.70;;;7.07;;
76152;SDS011;64897;50.816;4.422;2023-04-29T16:34:04;9.18;;;6.22;;
76152;SDS011;64897;50.816;4.422;2023-04-29T16:36:51;9.93;;;7.45;;
76152;SDS011;64897;50.816;4.422;2023-04-29T16:39:37;9.98;;;6.68;;
76152;SDS011;64897;50.816;4.422;2023-04-29T16:42:25;11.38;;;7.03;;